This is the latest recevied weather packets stored in our database for station/object ES0THZ-9. If no packets are shown the sender has not sent any weather packets the latest 10 day(s).
| Time | Temp. | Humidity | Pressure | Rain* | Wind** | Luminosity | Snow |
|---|---|---|---|---|---|---|---|
| 1778135597 | 9.44° C | 68% | 1013.8 hPa | 0 mm | - | - | - |
| 1778133792 | 8.89° C | 68% | 1013.5 hPa | 0 mm | - | - | - |
| 1778132588 | 8.33° C | 67% | 1013.5 hPa | 0 mm | - | - | - |
| 1778130781 | 7.78° C | 70% | 1013.3 hPa | 0 mm | - | - | - |
| 1778130199 | 7.22° C | 70% | 1013.2 hPa | 0 mm | - | - | - |
| 1778124179 | 5° C | 72% | 1012.6 hPa | 0 mm | - | - | - |
| 1778122955 | 5° C | 72% | 1012.5 hPa | 0 mm | - | - | - |
| 1778121751 | 5° C | 72% | 1012.6 hPa | 0 mm | - | - | - |
| 1778120547 | 5° C | 71% | 1012.7 hPa | 0 mm | - | - | - |
| 1778119946 | 5° C | 71% | 1012.7 hPa | 0 mm | - | - | - |
| 1778118139 | 5° C | 71% | 1012.6 hPa | 0 mm | - | - | - |
| 1778115731 | 5° C | 70% | 1012.6 hPa | 0 mm | - | - | - |
| 1778111517 | 5.56° C | 69% | 1012.6 hPa | 0 mm | - | - | - |
| 1778109711 | 5.56° C | 68% | 1012.4 hPa | 0 mm | - | - | - |
| 1778106119 | 6.11° C | 69% | 1012.2 hPa | 0 mm | - | - | - |
| 1778103089 | 6.11° C | 68% | 1012.1 hPa | 0 mm | - | - | - |
| 1778101283 | 6.11° C | 66% | 1012 hPa | 0 mm | - | - | - |
| 1778099477 | 6.67° C | 65% | 1012.2 hPa | 0 mm | - | - | - |
| 1778096467 | 6.67° C | 62% | 1012.3 hPa | 0 mm | - | - | - |
| 1778093458 | 7.22° C | 57% | 1012.3 hPa | 0 mm | - | - | - |
| 1778088040 | 8.89° C | 54% | 1012.4 hPa | 0 mm | - | - | - |
| 1778085631 | 9.44° C | 54% | 1012.6 hPa | 0 mm | - | - | - |
| 1778078106 | 12.78° C | 47% | 1013 hPa | 0 mm | - | - | - |
| 1778074193 | 11.67° C | 51% | 1013.7 hPa | 0 mm | - | - | - |
| 1778071786 | 11.67° C | 55% | 1013.8 hPa | 0 mm | - | - | - |
* Rain latest hour (hover to see other rain measurements)
** Current wind speed in m/s (hover to see current wind gust speed)